Terminal Aerodrome Forecast
Issued by NWS

Home | Current Version | Previous Version | Text Only | Print | Product List | Glossary On
Versions: 1 2 3 4 5 6 7 8 9 10 11 12 13
232
FTUS42 KMLB 201733
TAFISM
TAF
KISM 201733Z 2018/2118 22009KT P6SM FEW100
     FM210000 23005KT P6SM SCT120
     FM210800 19003KT 3SM BR SCT004 BKN008
     FM211400 19008KT P6SM FEW020 BKN150=

USA.gov is the U.S. government's official web portal to all federal, state and local government web resources and services.